sensor_id;sensor_type;location;lat;lon;timestamp;pressure;altitude;pressure_sealevel;temperature;humidity
50852;BME280;43953;45.508;-122.806;2023-07-30T00:00:23;100953.13;;;26.29;35.90
50852;BME280;43953;45.508;-122.806;2023-07-30T00:00:55;100944.56;;;26.31;35.92
50852;BME280;43953;45.508;-122.806;2023-07-30T00:01:26;100947.84;;;26.33;35.81
50852;BME280;43953;45.508;-122.806;2023-07-30T00:01:58;100950.59;;;26.33;35.89
50852;BME280;43953;45.508;-122.806;2023-07-30T00:02:30;100956.59;;;26.35;35.76
50852;BME280;43953;45.508;-122.806;2023-07-30T00:03:02;100953.84;;;26.35;35.88
50852;BME280;43953;45.508;-122.806;2023-07-30T00:03:34;100954.69;;;26.36;36.29
50852;BME280;43953;45.508;-122.806;2023-07-30T00:04:06;100945.28;;;26.37;35.87
50852;BME280;43953;45.508;-122.806;2023-07-30T00:04:38;100953.56;;;26.37;36.01
50852;BME280;43953;45.508;-122.806;2023-07-30T00:05:09;100944.13;;;26.38;36.00
50852;BME280;43953;45.508;-122.806;2023-07-30T00:05:41;100951.31;;;26.39;36.05
50852;BME280;43953;45.508;-122.806;2023-07-30T00:06:13;100952.13;;;26.39;36.40
50852;BME280;43953;45.508;-122.806;2023-07-30T00:06:44;100951.31;;;26.39;35.99
50852;BME280;43953;45.508;-122.806;2023-07-30T00:07:17;100953.22;;;26.38;35.96
50852;BME280;43953;45.508;-122.806;2023-07-30T00:07:49;100953.75;;;26.40;35.74
50852;BME280;43953;45.508;-122.806;2023-07-30T00:08:21;100959.25;;;26.40;36.20
50852;BME280;43953;45.508;-122.806;2023-07-30T00:08:53;100952.94;;;26.40;35.84
50852;BME280;43953;45.508;-122.806;2023-07-30T00:09:24;100953.75;;;26.40;36.09
50852;BME280;43953;45.508;-122.806;2023-07-30T00:09:56;100947.41;;;26.40;36.24
50852;BME280;43953;45.508;-122.806;2023-07-30T00:10:28;100947.41;;;26.40;35.85
50852;BME280;43953;45.508;-122.806;2023-07-30T00:11:00;100949.03;;;26.41;36.40
50852;BME280;43953;45.508;-122.806;2023-07-30T00:11:31;100949.03;;;26.41;36.04
50852;BME280;43953;45.508;-122.806;2023-07-30T00:12:07;100957.31;;;26.41;36.22
50852;BME280;43953;45.508;-122.806;2023-07-30T00:12:39;100958.13;;;26.41;36.11
50852;BME280;43953;45.508;-122.806;2023-07-30T00:13:12;100956.22;;;26.42;35.91
50852;BME280;43953;45.508;-122.806;2023-07-30T00:13:43;100951.50;;;26.42;36.26
50852;BME280;43953;45.508;-122.806;2023-07-30T00:14:15;100945.97;;;26.42;36.03
50852;BME280;43953;45.508;-122.806;2023-07-30T00:14:47;100948.41;;;26.44;35.83
50852;BME280;43953;45.508;-122.806;2023-07-30T00:15:19;100953.94;;;26.44;36.22
50852;BME280;43953;45.508;-122.806;2023-07-30T00:15:50;100953.94;;;26.44;35.72
50852;BME280;43953;45.508;-122.806;2023-07-30T00:16:22;100952.81;;;26.45;35.86
50852;BME280;43953;45.508;-122.806;2023-07-30T00:16:56;100947.78;;;26.47;36.00
50852;BME280;43953;45.508;-122.806;2023-07-30T00:17:28;100949.22;;;26.44;35.85
50852;BME280;43953;45.508;-122.806;2023-07-30T00:17:59;100953.03;;;26.48;35.56
50852;BME280;43953;45.508;-122.806;2023-07-30T00:18:31;100947.50;;;26.48;35.85
50852;BME280;43953;45.508;-122.806;2023-07-30T00:19:03;100951.91;;;26.49;36.14
50852;BME280;43953;45.508;-122.806;2023-07-30T00:19:35;100954.38;;;26.51;35.93
50852;BME280;43953;45.508;-122.806;2023-07-30T00:20:07;100949.34;;;26.53;36.09
50852;BME280;43953;45.508;-122.806;2023-07-30T00:20:39;100950.47;;;26.52;35.79
50852;BME280;43953;45.508;-122.806;2023-07-30T00:21:11;100950.47;;;26.52;35.92
50852;BME280;43953;45.508;-122.806;2023-07-30T00:21:42;100952.09;;;26.53;35.75
50852;BME280;43953;45.508;-122.806;2023-07-30T00:22:17;100952.09;;;26.53;35.93
50852;BME280;43953;45.508;-122.806;2023-07-30T00:22:49;100948.22;;;26.54;36.11
50852;BME280;43953;45.508;-122.806;2023-07-30T00:23:20;100955.38;;;26.55;36.20
50852;BME280;43953;45.508;-122.806;2023-07-30T00:23:52;100950.66;;;26.55;36.20
50852;BME280;43953;45.508;-122.806;2023-07-30T00:24:24;100950.38;;;26.57;36.17
50852;BME280;43953;45.508;-122.806;2023-07-30T00:24:55;100953.94;;;26.58;36.18
50852;BME280;43953;45.508;-122.806;2023-07-30T00:25:27;100954.75;;;26.58;36.36
50852;BME280;43953;45.508;-122.806;2023-07-30T00:25:59;100950.88;;;26.59;36.23
50852;BME280;43953;45.508;-122.806;2023-07-30T00:26:30;100956.41;;;26.59;36.40
50852;BME280;43953;45.508;-122.806;2023-07-30T00:27:02;100951.69;;;26.60;36.06
50852;BME280;43953;45.508;-122.806;2023-07-30T00:27:34;100958.03;;;26.60;36.41
50852;BME280;43953;45.508;-122.806;2023-07-30T00:28:05;100948.94;;;26.60;36.50
50852;BME280;43953;45.508;-122.806;2023-07-30T00:28:37;100954.13;;;26.61;36.38
50852;BME280;43953;45.508;-122.806;2023-07-30T00:29:09;100956.09;;;26.61;36.14
50852;BME280;43953;45.508;-122.806;2023-07-30T00:29:40;100958.84;;;26.61;35.96
50852;BME280;43953;45.508;-122.806;2023-07-30T00:30:12;100954.13;;;26.61;36.36
50852;BME280;43953;45.508;-122.806;2023-07-30T00:30:44;100953.84;;;26.63;36.50
50852;BME280;43953;45.508;-122.806;2023-07-30T00:31:16;100955.78;;;26.62;35.99
50852;BME280;43953;45.508;-122.806;2023-07-30T00:31:48;100960.47;;;26.62;36.36
50852;BME280;43953;45.508;-122.806;2023-07-30T00:32:19;100950.25;;;26.62;36.37
50852;BME280;43953;45.508;-122.806;2023-07-30T00:32:51;100951.88;;;26.63;36.13
50852;BME280;43953;45.508;-122.806;2023-07-30T00:33:23;100949.13;;;26.63;36.07
50852;BME280;43953;45.508;-122.806;2023-07-30T00:33:55;100946.38;;;26.63;36.41
50852;BME280;43953;45.508;-122.806;2023-07-30T00:34:27;100957.41;;;26.63;36.11
50852;BME280;43953;45.508;-122.806;2023-07-30T00:34:58;100953.03;;;26.62;36.26
50852;BME280;43953;45.508;-122.806;2023-07-30T00:35:30;100947.50;;;26.62;35.94
50852;BME280;43953;45.508;-122.806;2023-07-30T00:36:02;100951.88;;;26.63;36.14
50852;BME280;43953;45.508;-122.806;2023-07-30T00:36:33;100956.28;;;26.64;36.04
50852;BME280;43953;45.508;-122.806;2023-07-30T00:37:05;100949.13;;;26.63;36.01
50852;BME280;43953;45.508;-122.806;2023-07-30T00:37:37;100956.28;;;26.64;36.18
50852;BME280;43953;45.508;-122.806;2023-07-30T00:38:08;100953.50;;;26.64;35.94
50852;BME280;43953;45.508;-122.806;2023-07-30T00:38:40;100950.44;;;26.66;35.75
50852;BME280;43953;45.508;-122.806;2023-07-30T00:39:12;100951.25;;;26.66;36.26
50852;BME280;43953;45.508;-122.806;2023-07-30T00:39:43;100949.31;;;26.67;36.35
50852;BME280;43953;45.508;-122.806;2023-07-30T00:40:15;100953.69;;;26.68;36.07
50852;BME280;43953;45.508;-122.806;2023-07-30T00:40:47;100952.88;;;26.67;36.17
50852;BME280;43953;45.508;-122.806;2023-07-30T00:41:18;100952.88;;;26.67;35.88
50852;BME280;43953;45.508;-122.806;2023-07-30T00:41:50;100952.88;;;26.67;35.68
50852;BME280;43953;45.508;-122.806;2023-07-30T00:42:22;100958.09;;;26.69;35.93
50852;BME280;43953;45.508;-122.806;2023-07-30T00:42:53;100958.09;;;26.69;36.40
50852;BME280;43953;45.508;-122.806;2023-07-30T00:43:25;100951.44;;;26.70;36.46
50852;BME280;43953;45.508;-122.806;2023-07-30T00:43:57;100950.63;;;26.69;36.00
50852;BME280;43953;45.508;-122.806;2023-07-30T00:44:29;100956.97;;;26.70;36.15
50852;BME280;43953;45.508;-122.806;2023-07-30T00:45:01;100950.63;;;26.69;36.19
50852;BME280;43953;45.508;-122.806;2023-07-30T00:45:32;100948.38;;;26.71;36.54
50852;BME280;43953;45.508;-122.806;2023-07-30T00:46:04;100953.06;;;26.71;36.49
50852;BME280;43953;45.508;-122.806;2023-07-30T00:46:37;100944.78;;;26.71;36.52
50852;BME280;43953;45.508;-122.806;2023-07-30T00:47:08;100947.53;;;26.71;36.34
50852;BME280;43953;45.508;-122.806;2023-07-30T00:47:41;100951.16;;;26.71;36.26
50852;BME280;43953;45.508;-122.806;2023-07-30T00:48:13;100947.25;;;26.72;36.16
50852;BME280;43953;45.508;-122.806;2023-07-30T00:48:45;100952.78;;;26.72;35.80
50852;BME280;43953;45.508;-122.806;2023-07-30T00:49:17;100950.81;;;26.73;35.93
50852;BME280;43953;45.508;-122.806;2023-07-30T00:49:49;100944.50;;;26.72;36.29
50852;BME280;43953;45.508;-122.806;2023-07-30T00:50:21;100954.41;;;26.73;36.07
50852;BME280;43953;45.508;-122.806;2023-07-30T00:50:53;100950.81;;;26.73;36.36
50852;BME280;43953;45.508;-122.806;2023-07-30T00:51:26;100952.78;;;26.72;36.08
50852;BME280;43953;45.508;-122.806;2023-07-30T00:51:59;100946.44;;;26.72;36.13
50852;BME280;43953;45.508;-122.806;2023-07-30T00:52:32;100955.53;;;26.72;36.08
50852;BME280;43953;45.508;-122.806;2023-07-30T00:53:05;100953.91;;;26.71;36.24
50852;BME280;43953;45.508;-122.806;2023-07-30T00:53:37;100946.09;;;26.73;36.52
50852;BME280;43953;45.508;-122.806;2023-07-30T00:54:09;100946.94;;;26.74;36.29
50852;BME280;43953;45.508;-122.806;2023-07-30T00:54:41;100946.09;;;26.73;35.89
50852;BME280;43953;45.508;-122.806;2023-07-30T00:55:13;100946.09;;;26.73;36.28
50852;BME280;43953;45.508;-122.806;2023-07-30T00:55:46;100947.75;;;26.74;36.44
50852;BME280;43953;45.508;-122.806;2023-07-30T00:56:18;100953.28;;;26.74;35.99
50852;BME280;43953;45.508;-122.806;2023-07-30T00:56:52;100949.38;;;26.75;36.19
50852;BME280;43953;45.508;-122.806;2023-07-30T00:57:24;100947.44;;;26.76;35.92
50852;BME280;43953;45.508;-122.806;2023-07-30T00:57:57;100959.81;;;26.78;35.97
50852;BME280;43953;45.508;-122.806;2023-07-30T00:58:30;100950.38;;;26.80;36.32
50852;BME280;43953;45.508;-122.806;2023-07-30T00:59:02;100951.53;;;26.78;36.25
50852;BME280;43953;45.508;-122.806;2023-07-30T00:59:33;100956.75;;;26.80;36.39
50852;BME280;43953;45.508;-122.806;2023-07-30T01:00:06;100951.22;;;26.80;36.27
50852;BME280;43953;45.508;-122.806;2023-07-30T01:00:41;100949.28;;;26.81;36.08
50852;BME280;43953;45.508;-122.806;2023-07-30T01:01:13;100954.47;;;26.82;35.71
50852;BME280;43953;45.508;-122.806;2023-07-30T01:01:46;100960.00;;;26.82;35.83
50852;BME280;43953;45.508;-122.806;2023-07-30T01:02:18;100954.47;;;26.82;35.89
50852;BME280;43953;45.508;-122.806;2023-07-30T01:02:51;100956.94;;;26.84;36.26
50852;BME280;43953;45.508;-122.806;2023-07-30T01:03:23;100958.03;;;26.83;36.30
50852;BME280;43953;45.508;-122.806;2023-07-30T01:03:55;100952.53;;;26.83;36.37
50852;BME280;43953;45.508;-122.806;2023-07-30T01:04:27;100959.69;;;26.84;35.84
50852;BME280;43953;45.508;-122.806;2023-07-30T01:05:01;100955.28;;;26.83;35.68
50852;BME280;43953;45.508;-122.806;2023-07-30T01:05:36;100954.47;;;26.82;35.42
50852;BME280;43953;45.508;-122.806;2023-07-30T01:06:07;100962.47;;;26.84;35.49
50852;BME280;43953;45.508;-122.806;2023-07-30T01:06:39;100956.13;;;26.83;35.40
50852;BME280;43953;45.508;-122.806;2023-07-30T01:07:11;100958.56;;;26.85;35.95
50852;BME280;43953;45.508;-122.806;2023-07-30T01:07:42;100956.94;;;26.84;35.70
50852;BME280;43953;45.508;-122.806;2023-07-30T01:08:14;100962.13;;;26.85;35.75
50852;BME280;43953;45.508;-122.806;2023-07-30T01:08:47;100961.31;;;26.85;35.95
50852;BME280;43953;45.508;-122.806;2023-07-30T01:09:19;100965.72;;;26.86;35.91
50852;BME280;43953;45.508;-122.806;2023-07-30T01:09:51;100953.84;;;26.85;35.84
50852;BME280;43953;45.508;-122.806;2023-07-30T01:10:25;100959.38;;;26.85;35.97
50852;BME280;43953;45.508;-122.806;2023-07-30T01:10:58;100961.84;;;26.87;36.25
50852;BME280;43953;45.508;-122.806;2023-07-30T01:11:30;100960.19;;;26.86;35.86
50852;BME280;43953;45.508;-122.806;2023-07-30T01:12:02;100962.94;;;26.86;35.69
50852;BME280;43953;45.508;-122.806;2023-07-30T01:12:35;100960.19;;;26.86;35.79
50852;BME280;43953;45.508;-122.806;2023-07-30T01:13:09;100959.38;;;26.85;36.24
50852;BME280;43953;45.508;-122.806;2023-07-30T01:13:42;100960.19;;;26.86;35.91
50852;BME280;43953;45.508;-122.806;2023-07-30T01:14:14;100956.31;;;26.87;35.94
50852;BME280;43953;45.508;-122.806;2023-07-30T01:14:47;100967.34;;;26.87;36.50
50852;BME280;43953;45.508;-122.806;2023-07-30T01:15:19;100962.66;;;26.87;35.98
50852;BME280;43953;45.508;-122.806;2023-07-30T01:15:51;100961.84;;;26.87;36.32
50852;BME280;43953;45.508;-122.806;2023-07-30T01:16:23;100960.19;;;26.86;36.23
50852;BME280;43953;45.508;-122.806;2023-07-30T01:16:55;100962.94;;;26.86;36.26
50852;BME280;43953;45.508;-122.806;2023-07-30T01:17:27;100961.84;;;26.87;36.05
50852;BME280;43953;45.508;-122.806;2023-07-30T01:17:59;100963.47;;;26.88;36.16
50852;BME280;43953;45.508;-122.806;2023-07-30T01:18:30;100965.41;;;26.87;36.42
50852;BME280;43953;45.508;-122.806;2023-07-30T01:19:02;100970.13;;;26.87;35.89
50852;BME280;43953;45.508;-122.806;2023-07-30T01:19:35;100963.47;;;26.88;36.33
50852;BME280;43953;45.508;-122.806;2023-07-30T01:20:07;100970.13;;;26.87;35.98
50852;BME280;43953;45.508;-122.806;2023-07-30T01:20:39;100967.34;;;26.87;35.93
50852;BME280;43953;45.508;-122.806;2023-07-30T01:21:11;100968.97;;;26.88;36.04
50852;BME280;43953;45.508;-122.806;2023-07-30T01:21:43;100974.50;;;26.88;36.25
50852;BME280;43953;45.508;-122.806;2023-07-30T01:22:15;100966.22;;;26.88;36.09
50852;BME280;43953;45.508;-122.806;2023-07-30T01:22:47;100966.53;;;26.86;36.18
50852;BME280;43953;45.508;-122.806;2023-07-30T01:23:22;100965.72;;;26.86;36.18
50852;BME280;43953;45.508;-122.806;2023-07-30T01:23:54;100964.09;;;26.85;36.22
50852;BME280;43953;45.508;-122.806;2023-07-30T01:24:26;100966.03;;;26.84;36.39
50852;BME280;43953;45.508;-122.806;2023-07-30T01:24:57;100972.38;;;26.85;35.99
50852;BME280;43953;45.508;-122.806;2023-07-30T01:25:35;100966.03;;;26.84;36.40
50852;BME280;43953;45.508;-122.806;2023-07-30T01:26:11;100967.16;;;26.83;36.35
50852;BME280;43953;45.508;-122.806;2023-07-30T01:26:46;100970.75;;;26.84;36.24
50852;BME280;43953;45.508;-122.806;2023-07-30T01:27:26;100962.47;;;26.84;36.15
50852;BME280;43953;45.508;-122.806;2023-07-30T01:28:01;100968.78;;;26.84;36.23
50852;BME280;43953;45.508;-122.806;2023-07-30T01:28:36;100960.50;;;26.84;36.13
50852;BME280;43953;45.508;-122.806;2023-07-30T01:29:22;100974.31;;;26.84;36.09
50852;BME280;43953;45.508;-122.806;2023-07-30T01:30:22;100968.78;;;26.84;35.89
50852;BME280;43953;45.508;-122.806;2023-07-30T01:30:57;100972.88;;;26.87;35.91
50852;BME280;43953;45.508;-122.806;2023-07-30T01:31:33;100967.88;;;26.89;36.13
50852;BME280;43953;45.508;-122.806;2023-07-30T01:32:08;100971.44;;;26.89;36.17
50852;BME280;43953;45.508;-122.806;2023-07-30T01:32:41;100962.00;;;26.90;36.15
50852;BME280;43953;45.508;-122.806;2023-07-30T01:33:13;100967.53;;;26.90;35.74
50852;BME280;43953;45.508;-122.806;2023-07-30T01:33:48;100970.31;;;26.90;35.87
50852;BME280;43953;45.508;-122.806;2023-07-30T01:34:24;100970.00;;;26.92;36.16
50852;BME280;43953;45.508;-122.806;2023-07-30T01:34:59;100971.13;;;26.91;36.30
50852;BME280;43953;45.508;-122.806;2023-07-30T01:35:33;100969.50;;;26.90;36.07
50852;BME280;43953;45.508;-122.806;2023-07-30T01:36:08;100972.78;;;26.92;36.03
50852;BME280;43953;45.508;-122.806;2023-07-30T01:36:40;100964.47;;;26.92;36.27
50852;BME280;43953;45.508;-122.806;2023-07-30T01:37:13;100965.28;;;26.92;36.32
50852;BME280;43953;45.508;-122.806;2023-07-30T01:37:47;100971.63;;;26.93;36.07
50852;BME280;43953;45.508;-122.806;2023-07-30T01:38:19;100964.47;;;26.92;36.38
50852;BME280;43953;45.508;-122.806;2023-07-30T01:38:51;100970.81;;;26.92;36.48
50852;BME280;43953;45.508;-122.806;2023-07-30T01:39:24;100968.06;;;26.92;36.21
50852;BME280;43953;45.508;-122.806;2023-07-30T01:39:57;100968.88;;;26.93;36.39
50852;BME280;43953;45.508;-122.806;2023-07-30T01:40:29;100966.09;;;26.93;35.86
50852;BME280;43953;45.508;-122.806;2023-07-30T01:41:01;100970.00;;;26.92;36.37
50852;BME280;43953;45.508;-122.806;2023-07-30T01:41:33;100965.59;;;26.91;36.26
50852;BME280;43953;45.508;-122.806;2023-07-30T01:42:05;100973.88;;;26.91;35.95
50852;BME280;43953;45.508;-122.806;2023-07-30T01:42:37;100962.81;;;26.91;36.45
50852;BME280;43953;45.508;-122.806;2023-07-30T01:43:09;100967.53;;;26.90;36.22
50852;BME280;43953;45.508;-122.806;2023-07-30T01:43:41;100968.34;;;26.91;36.21
50852;BME280;43953;45.508;-122.806;2023-07-30T01:44:13;100970.31;;;26.90;36.26
50852;BME280;43953;45.508;-122.806;2023-07-30T01:44:44;100978.59;;;26.90;36.33
50852;BME280;43953;45.508;-122.806;2023-07-30T01:45:16;100973.88;;;26.91;36.09
50852;BME280;43953;45.508;-122.806;2023-07-30T01:45:48;100973.06;;;26.90;36.24
50852;BME280;43953;45.508;-122.806;2023-07-30T01:46:19;100973.88;;;26.91;36.19
50852;BME280;43953;45.508;-122.806;2023-07-30T01:46:51;100976.66;;;26.91;36.35
50852;BME280;43953;45.508;-122.806;2023-07-30T01:47:23;100970.31;;;26.90;36.16
50852;BME280;43953;45.508;-122.806;2023-07-30T01:47:54;100977.78;;;26.90;36.35
50852;BME280;43953;45.508;-122.806;2023-07-30T01:48:26;100976.16;;;26.89;36.43
50852;BME280;43953;45.508;-122.806;2023-07-30T01:48:58;100977.78;;;26.90;36.44
50852;BME280;43953;45.508;-122.806;2023-07-30T01:49:30;100978.91;;;26.89;36.38
50852;BME280;43953;45.508;-122.806;2023-07-30T01:50:02;100985.56;;;26.88;36.81
50852;BME280;43953;45.508;-122.806;2023-07-30T01:50:33;100982.78;;;26.88;36.58
50852;BME280;43953;45.508;-122.806;2023-07-30T01:51:05;100981.16;;;26.87;36.73
50852;BME280;43953;45.508;-122.806;2023-07-30T01:51:37;100984.75;;;26.87;36.31
50852;BME280;43953;45.508;-122.806;2023-07-30T01:52:08;100983.94;;;26.87;36.57
50852;BME280;43953;45.508;-122.806;2023-07-30T01:52:40;100993.31;;;26.86;36.40
50852;BME280;43953;45.508;-122.806;2023-07-30T01:53:12;100987.81;;;26.86;36.94
50852;BME280;43953;45.508;-122.806;2023-07-30T01:53:44;100988.66;;;26.86;36.52
50852;BME280;43953;45.508;-122.806;2023-07-30T01:54:15;100988.66;;;26.86;36.81
50852;BME280;43953;45.508;-122.806;2023-07-30T01:54:47;100993.31;;;26.86;36.59
50852;BME280;43953;45.508;-122.806;2023-07-30T01:55:19;100994.16;;;26.86;36.65
50852;BME280;43953;45.508;-122.806;2023-07-30T01:55:50;100993.31;;;26.86;36.28
50852;BME280;43953;45.508;-122.806;2023-07-30T01:56:22;100996.09;;;26.86;36.43
50852;BME280;43953;45.508;-122.806;2023-07-30T01:56:54;100992.53;;;26.85;36.37
50852;BME280;43953;45.508;-122.806;2023-07-30T01:57:26;100996.94;;;26.86;36.32
50852;BME280;43953;45.508;-122.806;2023-07-30T01:57:57;100992.22;;;26.87;36.39
50852;BME280;43953;45.508;-122.806;2023-07-30T01:58:29;100995.78;;;26.87;36.45
50852;BME280;43953;45.508;-122.806;2023-07-30T01:59:01;100999.38;;;26.88;36.28
50852;BME280;43953;45.508;-122.806;2023-07-30T01:59:32;100993.53;;;26.89;36.48
50852;BME280;43953;45.508;-122.806;2023-07-30T02:00:05;100997.75;;;26.87;36.05
50852;BME280;43953;45.508;-122.806;2023-07-30T02:00:36;101002.13;;;26.88;36.15
50852;BME280;43953;45.508;-122.806;2023-07-30T02:01:08;101002.13;;;26.88;36.22
50852;BME280;43953;45.508;-122.806;2023-07-30T02:01:43;100991.91;;;26.88;36.58
50852;BME280;43953;45.508;-122.806;2023-07-30T02:02:15;100995.50;;;26.89;36.31
50852;BME280;43953;45.508;-122.806;2023-07-30T02:02:47;100992.75;;;26.89;36.45
50852;BME280;43953;45.508;-122.806;2023-07-30T02:03:18;100998.25;;;26.89;36.35
50852;BME280;43953;45.508;-122.806;2023-07-30T02:03:50;100997.13;;;26.90;36.14
50852;BME280;43953;45.508;-122.806;2023-07-30T02:04:22;100999.88;;;26.90;36.62
50852;BME280;43953;45.508;-122.806;2023-07-30T02:04:53;101001.50;;;26.91;36.15
50852;BME280;43953;45.508;-122.806;2023-07-30T02:05:25;101000.69;;;26.90;36.61
50852;BME280;43953;45.508;-122.806;2023-07-30T02:05:57;101002.31;;;26.91;36.58
50852;BME280;43953;45.508;-122.806;2023-07-30T02:06:28;101000.69;;;26.90;36.33
50852;BME280;43953;45.508;-122.806;2023-07-30T02:07:00;101001.50;;;26.91;36.54
50852;BME280;43953;45.508;-122.806;2023-07-30T02:07:32;101007.03;;;26.91;36.44
50852;BME280;43953;45.508;-122.806;2023-07-30T02:08:04;101003.16;;;26.92;36.43
50852;BME280;43953;45.508;-122.806;2023-07-30T02:08:35;101002.31;;;26.91;36.64
50852;BME280;43953;45.508;-122.806;2023-07-30T02:09:07;101000.69;;;26.90;36.56
50852;BME280;43953;45.508;-122.806;2023-07-30T02:09:39;101000.69;;;26.90;36.33
50852;BME280;43953;45.508;-122.806;2023-07-30T02:10:13;101009.31;;;26.89;36.18
50852;BME280;43953;45.508;-122.806;2023-07-30T02:10:54;101010.94;;;26.90;36.30
50852;BME280;43953;45.508;-122.806;2023-07-30T02:11:26;101006.56;;;26.89;36.09
50852;BME280;43953;45.508;-122.806;2023-07-30T02:11:59;101002.47;;;26.86;36.46
50852;BME280;43953;45.508;-122.806;2023-07-30T02:12:31;101006.03;;;26.87;36.39
50852;BME280;43953;45.508;-122.806;2023-07-30T02:13:02;101009.59;;;26.87;36.31
50852;BME280;43953;45.508;-122.806;2023-07-30T02:13:34;101002.13;;;26.88;36.15
50852;BME280;43953;45.508;-122.806;2023-07-30T02:14:06;101009.31;;;26.89;36.20
50852;BME280;43953;45.508;-122.806;2023-07-30T02:14:37;101006.56;;;26.89;36.22
50852;BME280;43953;45.508;-122.806;2023-07-30T02:15:09;101009.31;;;26.89;36.10
50852;BME280;43953;45.508;-122.806;2023-07-30T02:15:41;101009.31;;;26.89;36.42
50852;BME280;43953;45.508;-122.806;2023-07-30T02:16:13;101008.19;;;26.90;36.09
50852;BME280;43953;45.508;-122.806;2023-07-30T02:16:45;101012.56;;;26.91;36.13
50852;BME280;43953;45.508;-122.806;2023-07-30T02:17:16;101012.56;;;26.91;36.26
50852;BME280;43953;45.508;-122.806;2023-07-30T02:17:48;101010.94;;;26.90;36.30
50852;BME280;43953;45.508;-122.806;2023-07-30T02:18:20;101004.91;;;26.88;36.42
50852;BME280;43953;45.508;-122.806;2023-07-30T02:18:51;101007.66;;;26.88;36.47
50852;BME280;43953;45.508;-122.806;2023-07-30T02:19:23;101006.03;;;26.87;36.47
50852;BME280;43953;45.508;-122.806;2023-07-30T02:19:55;101010.75;;;26.86;36.32
50852;BME280;43953;45.508;-122.806;2023-07-30T02:20:26;101004.38;;;26.86;36.59
50852;BME280;43953;45.508;-122.806;2023-07-30T02:20:58;101009.91;;;26.86;36.45
50852;BME280;43953;45.508;-122.806;2023-07-30T02:21:30;101008.28;;;26.85;36.22
50852;BME280;43953;45.508;-122.806;2023-07-30T02:22:03;101016.56;;;26.85;36.51
50852;BME280;43953;45.508;-122.806;2023-07-30T02:22:35;101013.00;;;26.84;36.17
50852;BME280;43953;45.508;-122.806;2023-07-30T02:23:07;101012.19;;;26.84;36.34
50852;BME280;43953;45.508;-122.806;2023-07-30T02:23:40;101010.53;;;26.83;36.37
50852;BME280;43953;45.508;-122.806;2023-07-30T02:24:12;101012.19;;;26.84;36.29
50852;BME280;43953;45.508;-122.806;2023-07-30T02:24:43;101014.13;;;26.83;36.63
50852;BME280;43953;45.508;-122.806;2023-07-30T02:25:15;101010.22;;;26.84;36.78
50852;BME280;43953;45.508;-122.806;2023-07-30T02:25:47;101014.94;;;26.84;36.58
50852;BME280;43953;45.508;-122.806;2023-07-30T02:26:18;101015.75;;;26.84;36.74
50852;BME280;43953;45.508;-122.806;2023-07-30T02:26:50;101017.72;;;26.84;36.31
50852;BME280;43953;45.508;-122.806;2023-07-30T02:27:22;101012.19;;;26.84;36.46
50852;BME280;43953;45.508;-122.806;2023-07-30T02:27:53;101018.53;;;26.84;36.39
50852;BME280;43953;45.508;-122.806;2023-07-30T02:28:25;101018.19;;;26.86;36.64
50852;BME280;43953;45.508;-122.806;2023-07-30T02:28:57;101017.91;;;26.87;36.40
50852;BME280;43953;45.508;-122.806;2023-07-30T02:29:31;101018.72;;;26.88;36.28
50852;BME280;43953;45.508;-122.806;2023-07-30T02:30:03;101018.41;;;26.89;36.13
50852;BME280;43953;45.508;-122.806;2023-07-30T02:30:35;101021.19;;;26.89;36.28
50852;BME280;43953;45.508;-122.806;2023-07-30T02:31:07;101019.22;;;26.90;36.71
50852;BME280;43953;45.508;-122.806;2023-07-30T02:31:39;101016.47;;;26.90;36.46
50852;BME280;43953;45.508;-122.806;2023-07-30T02:32:10;101023.63;;;26.91;36.33
50852;BME280;43953;45.508;-122.806;2023-07-30T02:32:42;101020.84;;;26.91;36.24
50852;BME280;43953;45.508;-122.806;2023-07-30T02:33:14;101020.84;;;26.91;36.33
50852;BME280;43953;45.508;-122.806;2023-07-30T02:33:45;101018.09;;;26.91;36.57
50852;BME280;43953;45.508;-122.806;2023-07-30T02:34:17;101016.47;;;26.90;35.95
50852;BME280;43953;45.508;-122.806;2023-07-30T02:34:49;101017.28;;;26.90;36.50
50852;BME280;43953;45.508;-122.806;2023-07-30T02:35:20;101020.03;;;26.90;36.24
50852;BME280;43953;45.508;-122.806;2023-07-30T02:35:52;101010.94;;;26.90;36.37
50852;BME280;43953;45.508;-122.806;2023-07-30T02:36:24;101023.13;;;26.89;36.18
50852;BME280;43953;45.508;-122.806;2023-07-30T02:36:56;101015.66;;;26.89;36.50
50852;BME280;43953;45.508;-122.806;2023-07-30T02:37:27;101016.47;;;26.90;36.52
50852;BME280;43953;45.508;-122.806;2023-07-30T02:37:59;101019.22;;;26.90;36.39
50852;BME280;43953;45.508;-122.806;2023-07-30T02:38:31;101016.47;;;26.90;36.43
50852;BME280;43953;45.508;-122.806;2023-07-30T02:39:02;101017.59;;;26.89;36.38
50852;BME280;43953;45.508;-122.806;2023-07-30T02:39:34;101017.91;;;26.87;36.46
50852;BME280;43953;45.508;-122.806;2023-07-30T02:40:06;101018.72;;;26.88;36.24
50852;BME280;43953;45.508;-122.806;2023-07-30T02:40:38;101017.91;;;26.87;36.18
50852;BME280;43953;45.508;-122.806;2023-07-30T02:41:10;101015.13;;;26.87;36.23
50852;BME280;43953;45.508;-122.806;2023-07-30T02:41:41;101018.72;;;26.88;36.33
50852;BME280;43953;45.508;-122.806;2023-07-30T02:42:13;101012.38;;;26.87;36.43
50852;BME280;43953;45.508;-122.806;2023-07-30T02:42:45;101014.31;;;26.87;36.32